TimeMST,TemperatureF,Dew PointF,Humidity,Sea Level PressureIn,VisibilityMPH,Wind Direction,Wind SpeedMPH,Gust SpeedMPH,PrecipitationIn,Events,Conditions,WindDirDegrees,DateUTC
12:53 AM,14.0,8.1,77,30.16,2.5,NNE,12.7,18.4,0.00,Snow,Light Snow,20,2012-12-09 07:53:00
1:16 AM,14.0,8.6,79,30.03,1.5,NNE,11.5,-,0.00,Snow,Light Snow,20,2012-12-09 08:16:00
1:45 AM,14.0,8.6,79,30.04,3.0,NE,10.4,-,0.01,Snow,Light Snow,40,2012-12-09 08:45:00
1:53 AM,14.0,8.1,77,30.18,3.0,NNE,12.7,-,0.01,Snow,Light Snow,30,2012-12-09 08:53:00
2:01 AM,14.0,8.6,79,30.05,2.0,NE,8.1,-,0.00,Snow,Light Snow,40,2012-12-09 09:01:00
2:12 AM,14.0,6.8,73,30.05,4.0,NE,8.1,-,0.00,Snow,Light Snow,40,2012-12-09 09:12:00
2:41 AM,14.0,6.8,73,30.06,4.0,ENE,8.1,-,0.00,Snow,Light Snow,60,2012-12-09 09:41:00
2:53 AM,14.0,6.1,71,30.21,9.0,ENE,9.2,-,0.00,,Overcast,70,2012-12-09 09:53:00
3:53 AM,12.0,7.0,80,30.25,10.0,ESE,9.2,-,N/A,,Overcast,110,2012-12-09 10:53:00
4:53 AM,9.0,3.0,77,30.30,10.0,SE,5.8,-,N/A,,Partly Cloudy,130,2012-12-09 11:53:00
5:53 AM,9.0,3.0,77,30.32,10.0,SE,3.5,-,N/A,,Clear,130,2012-12-09 12:53:00
6:53 AM,8.1,1.9,76,30.36,10.0,SE,3.5,-,N/A,,Clear,140,2012-12-09 13:53:00
7:53 AM,8.1,1.9,76,30.38,10.0,South,3.5,-,N/A,,Clear,170,2012-12-09 14:53:00
8:50 AM,12.2,5.0,73,30.19,10.0,Calm,Calm,-,N/A,,Mostly Cloudy,0,2012-12-09 15:50:00
8:53 AM,12.9,6.1,74,30.39,10.0,Calm,Calm,-,N/A,,Mostly Cloudy,0,2012-12-09 15:53:00
9:53 AM,12.9,5.0,71,30.41,10.0,SE,3.5,-,N/A,,Overcast,140,2012-12-09 16:53:00
10:53 AM,14.0,6.1,71,30.42,10.0,SSE,3.5,-,N/A,,Mostly Cloudy,150,2012-12-09 17:53:00
11:07 AM,14.0,6.8,73,30.21,10.0,South,3.5,-,N/A,,Scattered Clouds,180,2012-12-09 18:07:00
11:53 AM,15.1,6.1,68,30.39,10.0,Variable,4.6,-,N/A,,Partly Cloudy,0,2012-12-09 18:53:00
12:53 PM,16.0,6.1,65,30.36,10.0,South,4.6,-,N/A,,Partly Cloudy,170,2012-12-09 19:53:00
1:53 PM,18.0,6.1,60,30.34,10.0,Calm,Calm,-,N/A,,Clear,0,2012-12-09 20:53:00
2:53 PM,18.0,6.1,60,30.31,10.0,SSE,4.6,-,N/A,,Clear,160,2012-12-09 21:53:00
3:53 PM,19.0,5.0,54,30.29,10.0,Calm,Calm,-,N/A,,Clear,0,2012-12-09 22:53:00
4:53 PM,16.0,3.9,59,30.29,10.0,South,3.5,-,N/A,,Clear,190,2012-12-09 23:53:00
5:53 PM,5.0,-2.0,73,30.33,10.0,NNW,3.5,-,N/A,,Clear,340,2012-12-10 00:53:00
6:53 PM,10.9,3.0,70,30.25,10.0,Calm,Calm,-,N/A,,Clear,0,2012-12-10 01:53:00
7:53 PM,12.0,1.9,64,30.22,10.0,South,4.6,-,N/A,,Scattered Clouds,190,2012-12-10 02:53:00
8:53 PM,9.0,1.9,73,30.17,10.0,West,10.4,18.4,N/A,,Partly Cloudy,260,2012-12-10 03:53:00
9:53 PM,10.9,3.0,70,30.15,10.0,WSW,12.7,-,N/A,,Clear,240,2012-12-10 04:53:00
10:53 PM,10.9,1.9,67,30.13,10.0,West,13.8,-,N/A,,Clear,270,2012-12-10 05:53:00
11:53 PM,12.0,-0.0,59,30.12,10.0,West,12.7,-,N/A,,Clear,260,2012-12-10 06:53:00